Flight Track Log - Related Links

Times and Time Zones

All times are in EDT time to prevent confusion due to time zone crossing. See the WAV261 flight status page for this flight to view local times or setup timezone preferences in your user account.


Time Position Orientation Groundspeed Altitude Reporting Facility
EDT Latitude Longitude Course Direction KTS MPH feet Rate Location/Type
Wed 10:51:33 PM 66.4333 -145.4833 211° Southwest 110 127 6,100  Level Anchorage Center
Wed 10:52:34 PM 66.4000 -145.5333 211° Southwest 130 150 7,000 843 Climbing Anchorage Center
Wed 10:53:34 PM 66.3833 -145.6000 238° Southwest 130 150 7,800 700 Climbing Anchorage Center
Wed 10:54:34 PM 66.3500 -145.6667 219° Southwest 150 173 8,400 645 Climbing Anchorage Center
Wed 10:55:35 PM 66.3167 -145.7167 211° Southwest 150 173 9,100 645 Climbing Anchorage Center
Wed 10:56:35 PM 66.2833 -145.7833 219° Southwest 160 184 9,700 446 Climbing Anchorage Center
Wed 10:57:36 PM 66.2333 -145.8500 208° Southwest 170 196 10,000 149 Climbing Anchorage Center
Wed 10:58:36 PM 66.2000 -145.9167 219° Southwest 180 207 10,000  Level Anchorage Center
Wed 10:59:36 PM 66.1500 -145.9667 202° Southwest 180 207 10,000  Level Anchorage Center
Wed 11:00:37 PM 66.1167 -146.0333 219° Southwest 170 196 10,000  Level Anchorage Center
Wed 11:01:37 PM 66.0667 -146.1000 208° Southwest 180 207 10,000  Level Anchorage Center
Wed 11:02:37 PM 66.0333 -146.1667 219° Southwest 170 196 10,000  Level Anchorage Center
Wed 11:03:38 PM 65.9833 -146.2167 202° Southwest 180 207 10,000  Level Anchorage Center
Wed 11:04:38 PM 65.9333 -146.2833 209° Southwest 190 219 10,000  Level Anchorage Center
Wed 11:05:38 PM 65.9000 -146.3500 219° Southwest 190 219 10,000  Level Anchorage Center
Wed 11:06:38 PM 65.8500 -146.4167 209° Southwest 190 219 10,000  Level Anchorage Center
Wed 11:07:39 PM 65.8167 -146.4833 219° Southwest 170 196 10,000  Level Anchorage Center
Wed 11:08:39 PM 65.7667 -146.5333 202° Southwest 170 196 10,000  Level Anchorage Center
Wed 11:09:39 PM 65.7333 -146.6000 219° Southwest 180 207 10,000  Level Anchorage Center
Wed 11:10:40 PM 65.6833 -146.6500 202° Southwest 180 207 10,000  Level Anchorage Center
Wed 11:11:40 PM 65.6333 -146.7167 209° Southwest 170 196 10,000  Level Anchorage Center
Wed 11:12:40 PM 65.6000 -146.7833 220° Southwest 160 184 10,000  Level Anchorage Center
Wed 11:13:41 PM 65.5500 -146.8333 202° Southwest 170 196 10,000  Level Anchorage Center
Wed 11:14:41 PM 65.5167 -146.9000 220° Southwest 180 207 10,000 -150 Level Anchorage Center
Wed 11:15:41 PM 65.4667 -146.9500 203° Southwest 170 196 9,700 -300 Descending Anchorage Center
Wed 11:17:00 PM 65.4179 -147.0112 208° Southwest  Level FlightAware Approximate
Wed 11:24:00 PM 65.1615 -147.3510 211° Southwest  Level FlightAware Approximate
Wed 11:25:00 PM 65.1255 -147.4014 210° Southwest  Level FlightAware Approximate
Wed 11:26:00 PM 65.0894 -147.4517 210° Southwest  Level FlightAware Approximate
Wed 11:27:00 PM 65.0534 -147.5019 211° Southwest  Level FlightAware Approximate
Wed 11:28:00 PM 65.0173 -147.5521 210° Southwest  Level FlightAware Approximate
Wed 11:29:00 PM 64.9813 -147.6022 210° Southwest  Level FlightAware Approximate
Wed 11:30:00 PM 64.9452 -147.6522 210° Southwest  Level FlightAware Approximate
Wed 11:31:00 PM 64.9091 -147.7020 210° Southwest  Level FlightAware Approximate
Wed 11:32:00 PM 64.8730 -147.7517 210° Southwest  Level FlightAware Approximate
Wed 11:33:00 PM 64.8368 -147.8009 210° Southwest  Level FlightAware Approximate
Wed 11:34:00 PM 64.8151 -147.8564 210° Southwest  Level Estimated
Wed 11:35:00 PM 64.8151 -147.8564 210° Southwest  Level Estimated
Wed 11:36:00 PM 64.8151 -147.8564 210° Southwest  Level Estimated
Wed 11:37:00 PM 64.8151 -147.8564 210° Southwest  Level Estimated
Wed 11:38:00 PM 64.8151 -147.8564 210° Southwest  Level Estimated
Wed 11:39:00 PM 64.8151 -147.8564 210° Southwest  Level Estimated
Wed 11:40:00 PM 64.8151 -147.8564 210° Southwest  Level Estimated
Wed 11:41:00 PM 64.8151 -147.8564 210° Southwest  Level Estimated
Wed 11:42:00 PM 64.8151 -147.8564 210° Southwest  Level Estimated
Wed 11:43:00 PM 64.8151 -147.8564 210° Southwest  Level Estimated
Wed 11:44:00 PM 64.8151 -147.8564 210° Southwest  Level Estimated
Wed 11:45:00 PM 64.8151 -147.8564 210° Southwest  Level Estimated
Wed 11:46:00 PM 64.8151 -147.8564 210° Southwest  Level Estimated
Wed 11:47:00 PM 64.8151 -147.8564 210° Southwest  Level Estimated
Wed 11:48:00 PM 64.8151 -147.8564 210° Southwest  Level Estimated
Wed 11:49:00 PM 64.8151 -147.8564 210° Southwest  Level Estimated

Login

Don't have an account? Register now (free) for customized features, flight alerts, and more!